sensor_id;sensor_type;location;lat;lon;timestamp;P1;durP1;ratioP1;P2;durP2;ratioP2
6566;SDS011;3317;43.994;22.878;2023-04-24T00:00:17;8.30;;;6.80;;
6566;SDS011;3317;43.994;22.878;2023-04-24T00:02:46;6.73;;;6.03;;
6566;SDS011;3317;43.994;22.878;2023-04-24T00:05:13;7.50;;;6.47;;
6566;SDS011;3317;43.994;22.878;2023-04-24T00:07:41;9.97;;;7.13;;
6566;SDS011;3317;43.994;22.878;2023-04-24T00:10:08;11.50;;;6.53;;
6566;SDS011;3317;43.994;22.878;2023-04-24T00:12:35;9.07;;;6.50;;
6566;SDS011;3317;43.994;22.878;2023-04-24T00:15:02;6.87;;;5.20;;
6566;SDS011;3317;43.994;22.878;2023-04-24T00:17:30;5.40;;;4.40;;
6566;SDS011;3317;43.994;22.878;2023-04-24T00:19:59;4.57;;;4.17;;
6566;SDS011;3317;43.994;22.878;2023-04-24T00:22:28;8.60;;;6.30;;
6566;SDS011;3317;43.994;22.878;2023-04-24T00:24:55;8.10;;;7.00;;
6566;SDS011;3317;43.994;22.878;2023-04-24T00:27:22;9.60;;;6.70;;
6566;SDS011;3317;43.994;22.878;2023-04-24T00:29:49;10.30;;;7.20;;
6566;SDS011;3317;43.994;22.878;2023-04-24T00:32:16;10.80;;;6.77;;
6566;SDS011;3317;43.994;22.878;2023-04-24T00:34:43;8.90;;;6.77;;
6566;SDS011;3317;43.994;22.878;2023-04-24T00:37:11;10.33;;;6.90;;
6566;SDS011;3317;43.994;22.878;2023-04-24T00:39:38;8.30;;;6.67;;
6566;SDS011;3317;43.994;22.878;2023-04-24T00:42:05;11.43;;;6.57;;
6566;SDS011;3317;43.994;22.878;2023-04-24T00:44:33;8.17;;;6.03;;
6566;SDS011;3317;43.994;22.878;2023-04-24T00:47:00;7.47;;;6.30;;
6566;SDS011;3317;43.994;22.878;2023-04-24T00:49:27;8.90;;;7.00;;
6566;SDS011;3317;43.994;22.878;2023-04-24T00:51:54;8.10;;;6.50;;
6566;SDS011;3317;43.994;22.878;2023-04-24T00:54:23;9.07;;;5.80;;
6566;SDS011;3317;43.994;22.878;2023-04-24T00:56:50;9.00;;;6.27;;
6566;SDS011;3317;43.994;22.878;2023-04-24T00:59:17;8.63;;;6.87;;
6566;SDS011;3317;43.994;22.878;2023-04-24T01:01:44;11.03;;;7.10;;
6566;SDS011;3317;43.994;22.878;2023-04-24T01:04:12;7.97;;;7.00;;
6566;SDS011;3317;43.994;22.878;2023-04-24T01:06:39;8.77;;;6.67;;
6566;SDS011;3317;43.994;22.878;2023-04-24T01:09:09;9.07;;;7.57;;
6566;SDS011;3317;43.994;22.878;2023-04-24T01:11:39;9.67;;;7.13;;
6566;SDS011;3317;43.994;22.878;2023-04-24T01:14:08;13.13;;;7.10;;
6566;SDS011;3317;43.994;22.878;2023-04-24T01:16:35;10.50;;;8.17;;
6566;SDS011;3317;43.994;22.878;2023-04-24T01:19:03;9.10;;;8.03;;
6566;SDS011;3317;43.994;22.878;2023-04-24T01:21:30;7.87;;;6.90;;
6566;SDS011;3317;43.994;22.878;2023-04-24T01:24:04;8.50;;;6.97;;
6566;SDS011;3317;43.994;22.878;2023-04-24T01:26:33;13.90;;;7.17;;
6566;SDS011;3317;43.994;22.878;2023-04-24T01:29:00;10.27;;;7.00;;
6566;SDS011;3317;43.994;22.878;2023-04-24T01:31:27;10.20;;;7.50;;
6566;SDS011;3317;43.994;22.878;2023-04-24T01:33:55;10.20;;;7.40;;
6566;SDS011;3317;43.994;22.878;2023-04-24T01:36:23;8.93;;;8.03;;
6566;SDS011;3317;43.994;22.878;2023-04-24T01:38:52;10.70;;;8.23;;
6566;SDS011;3317;43.994;22.878;2023-04-24T01:41:20;11.80;;;8.00;;
6566;SDS011;3317;43.994;22.878;2023-04-24T01:43:48;13.33;;;7.90;;
6566;SDS011;3317;43.994;22.878;2023-04-24T01:46:16;9.73;;;7.53;;
6566;SDS011;3317;43.994;22.878;2023-04-24T01:48:43;8.47;;;6.80;;
6566;SDS011;3317;43.994;22.878;2023-04-24T01:51:11;11.30;;;7.97;;
6566;SDS011;3317;43.994;22.878;2023-04-24T01:53:38;9.07;;;7.40;;
6566;SDS011;3317;43.994;22.878;2023-04-24T01:56:05;7.90;;;6.60;;
6566;SDS011;3317;43.994;22.878;2023-04-24T01:58:34;8.60;;;6.70;;
6566;SDS011;3317;43.994;22.878;2023-04-24T02:01:01;8.27;;;7.20;;
6566;SDS011;3317;43.994;22.878;2023-04-24T02:03:28;10.03;;;6.73;;
6566;SDS011;3317;43.994;22.878;2023-04-24T02:05:55;8.83;;;7.30;;
6566;SDS011;3317;43.994;22.878;2023-04-24T02:08:22;7.80;;;6.43;;
6566;SDS011;3317;43.994;22.878;2023-04-24T02:10:49;13.70;;;10.40;;
6566;SDS011;3317;43.994;22.878;2023-04-24T02:13:16;12.17;;;8.93;;
6566;SDS011;3317;43.994;22.878;2023-04-24T02:15:44;13.23;;;8.63;;
6566;SDS011;3317;43.994;22.878;2023-04-24T02:18:11;9.77;;;8.57;;
6566;SDS011;3317;43.994;22.878;2023-04-24T02:20:38;11.00;;;8.83;;
6566;SDS011;3317;43.994;22.878;2023-04-24T02:23:05;11.10;;;7.60;;
6566;SDS011;3317;43.994;22.878;2023-04-24T02:25:33;7.40;;;6.60;;
6566;SDS011;3317;43.994;22.878;2023-04-24T02:28:00;9.30;;;7.50;;
6566;SDS011;3317;43.994;22.878;2023-04-24T02:30:27;7.17;;;6.37;;
6566;SDS011;3317;43.994;22.878;2023-04-24T02:32:55;9.60;;;7.27;;
6566;SDS011;3317;43.994;22.878;2023-04-24T02:35:22;10.63;;;7.73;;
6566;SDS011;3317;43.994;22.878;2023-04-24T02:37:49;9.83;;;7.70;;
6566;SDS011;3317;43.994;22.878;2023-04-24T02:40:16;10.03;;;7.97;;
6566;SDS011;3317;43.994;22.878;2023-04-24T02:42:43;11.83;;;8.30;;
6566;SDS011;3317;43.994;22.878;2023-04-24T02:45:10;11.17;;;8.13;;
6566;SDS011;3317;43.994;22.878;2023-04-24T02:47:37;10.27;;;8.33;;
6566;SDS011;3317;43.994;22.878;2023-04-24T02:50:07;12.17;;;7.97;;
6566;SDS011;3317;43.994;22.878;2023-04-24T02:52:34;9.80;;;7.50;;
6566;SDS011;3317;43.994;22.878;2023-04-24T02:55:01;7.00;;;6.27;;
6566;SDS011;3317;43.994;22.878;2023-04-24T02:57:28;10.00;;;7.40;;
6566;SDS011;3317;43.994;22.878;2023-04-24T02:59:55;6.87;;;5.37;;
6566;SDS011;3317;43.994;22.878;2023-04-24T03:02:22;6.03;;;4.90;;
6566;SDS011;3317;43.994;22.878;2023-04-24T03:04:49;11.13;;;7.93;;
6566;SDS011;3317;43.994;22.878;2023-04-24T03:07:17;11.87;;;8.10;;
6566;SDS011;3317;43.994;22.878;2023-04-24T03:09:45;10.57;;;7.37;;
6566;SDS011;3317;43.994;22.878;2023-04-24T03:12:12;7.80;;;5.70;;
6566;SDS011;3317;43.994;22.878;2023-04-24T03:14:39;6.80;;;6.10;;
6566;SDS011;3317;43.994;22.878;2023-04-24T03:17:06;8.97;;;6.87;;
6566;SDS011;3317;43.994;22.878;2023-04-24T03:19:33;6.03;;;5.20;;
6566;SDS011;3317;43.994;22.878;2023-04-24T03:22:01;6.23;;;5.10;;
6566;SDS011;3317;43.994;22.878;2023-04-24T03:24:30;8.33;;;5.13;;
6566;SDS011;3317;43.994;22.878;2023-04-24T03:26:57;7.27;;;6.50;;
6566;SDS011;3317;43.994;22.878;2023-04-24T03:29:23;7.77;;;6.33;;
6566;SDS011;3317;43.994;22.878;2023-04-24T03:31:50;7.53;;;4.80;;
6566;SDS011;3317;43.994;22.878;2023-04-24T03:34:18;11.10;;;7.70;;
6566;SDS011;3317;43.994;22.878;2023-04-24T03:36:45;12.13;;;8.53;;
6566;SDS011;3317;43.994;22.878;2023-04-24T03:39:13;7.40;;;5.97;;
6566;SDS011;3317;43.994;22.878;2023-04-24T03:41:41;9.33;;;5.57;;
6566;SDS011;3317;43.994;22.878;2023-04-24T03:44:08;7.60;;;5.60;;
6566;SDS011;3317;43.994;22.878;2023-04-24T03:46:35;12.83;;;9.00;;
6566;SDS011;3317;43.994;22.878;2023-04-24T03:49:02;9.60;;;6.90;;
6566;SDS011;3317;43.994;22.878;2023-04-24T03:51:29;12.40;;;8.60;;
6566;SDS011;3317;43.994;22.878;2023-04-24T03:53:56;11.83;;;8.83;;
6566;SDS011;3317;43.994;22.878;2023-04-24T03:56:23;9.50;;;7.83;;
6566;SDS011;3317;43.994;22.878;2023-04-24T03:58:51;10.70;;;8.40;;
6566;SDS011;3317;43.994;22.878;2023-04-24T04:01:18;9.93;;;7.40;;
6566;SDS011;3317;43.994;22.878;2023-04-24T04:03:46;12.07;;;7.80;;
6566;SDS011;3317;43.994;22.878;2023-04-24T04:06:13;10.43;;;8.30;;
6566;SDS011;3317;43.994;22.878;2023-04-24T04:08:40;11.03;;;7.10;;
6566;SDS011;3317;43.994;22.878;2023-04-24T04:11:07;15.27;;;8.07;;
6566;SDS011;3317;43.994;22.878;2023-04-24T04:13:34;11.53;;;7.63;;
6566;SDS011;3317;43.994;22.878;2023-04-24T04:16:02;9.67;;;7.43;;
6566;SDS011;3317;43.994;22.878;2023-04-24T04:18:29;9.30;;;6.60;;
6566;SDS011;3317;43.994;22.878;2023-04-24T04:20:56;10.10;;;7.83;;
6566;SDS011;3317;43.994;22.878;2023-04-24T04:23:23;16.50;;;8.80;;
6566;SDS011;3317;43.994;22.878;2023-04-24T04:25:50;13.30;;;8.60;;
6566;SDS011;3317;43.994;22.878;2023-04-24T04:28:18;11.37;;;7.67;;
6566;SDS011;3317;43.994;22.878;2023-04-24T04:30:46;9.30;;;7.07;;
6566;SDS011;3317;43.994;22.878;2023-04-24T04:33:14;14.97;;;9.90;;
6566;SDS011;3317;43.994;22.878;2023-04-24T04:35:41;19.70;;;10.17;;
6566;SDS011;3317;43.994;22.878;2023-04-24T04:38:08;18.10;;;10.80;;
6566;SDS011;3317;43.994;22.878;2023-04-24T04:40:36;16.27;;;11.63;;
6566;SDS011;3317;43.994;22.878;2023-04-24T04:43:03;17.27;;;12.67;;
6566;SDS011;3317;43.994;22.878;2023-04-24T04:45:32;15.53;;;11.93;;
6566;SDS011;3317;43.994;22.878;2023-04-24T04:47:59;19.23;;;11.70;;
6566;SDS011;3317;43.994;22.878;2023-04-24T04:50:28;34.43;;;13.10;;
6566;SDS011;3317;43.994;22.878;2023-04-24T04:52:55;19.60;;;13.43;;
6566;SDS011;3317;43.994;22.878;2023-04-24T04:55:22;20.77;;;13.30;;
6566;SDS011;3317;43.994;22.878;2023-04-24T04:57:49;22.17;;;13.73;;
6566;SDS011;3317;43.994;22.878;2023-04-24T05:00:17;22.77;;;13.00;;
6566;SDS011;3317;43.994;22.878;2023-04-24T05:02:44;25.57;;;14.57;;
6566;SDS011;3317;43.994;22.878;2023-04-24T05:05:12;25.17;;;14.00;;
6566;SDS011;3317;43.994;22.878;2023-04-24T05:07:44;20.70;;;13.00;;
6566;SDS011;3317;43.994;22.878;2023-04-24T05:10:11;26.30;;;14.53;;
6566;SDS011;3317;43.994;22.878;2023-04-24T05:12:38;28.47;;;19.47;;
6566;SDS011;3317;43.994;22.878;2023-04-24T05:15:05;26.03;;;17.23;;
6566;SDS011;3317;43.994;22.878;2023-04-24T05:17:34;21.90;;;15.07;;
6566;SDS011;3317;43.994;22.878;2023-04-24T05:20:02;15.87;;;10.20;;
6566;SDS011;3317;43.994;22.878;2023-04-24T05:22:30;14.73;;;10.90;;
6566;SDS011;3317;43.994;22.878;2023-04-24T05:24:58;13.07;;;9.77;;
6566;SDS011;3317;43.994;22.878;2023-04-24T05:27:25;13.70;;;9.80;;
6566;SDS011;3317;43.994;22.878;2023-04-24T05:29:52;14.70;;;9.30;;
6566;SDS011;3317;43.994;22.878;2023-04-24T05:32:19;17.40;;;10.23;;
6566;SDS011;3317;43.994;22.878;2023-04-24T05:34:46;12.37;;;9.10;;
6566;SDS011;3317;43.994;22.878;2023-04-24T05:37:13;14.00;;;9.87;;
6566;SDS011;3317;43.994;22.878;2023-04-24T05:39:40;14.80;;;9.50;;
6566;SDS011;3317;43.994;22.878;2023-04-24T05:42:09;10.60;;;8.63;;
6566;SDS011;3317;43.994;22.878;2023-04-24T05:44:36;10.30;;;8.37;;
6566;SDS011;3317;43.994;22.878;2023-04-24T05:47:03;10.27;;;8.87;;
6566;SDS011;3317;43.994;22.878;2023-04-24T05:49:30;14.87;;;9.67;;
6566;SDS011;3317;43.994;22.878;2023-04-24T05:51:56;11.93;;;9.13;;
6566;SDS011;3317;43.994;22.878;2023-04-24T05:54:23;13.30;;;9.40;;
6566;SDS011;3317;43.994;22.878;2023-04-24T05:56:50;12.20;;;10.60;;
6566;SDS011;3317;43.994;22.878;2023-04-24T05:59:20;15.03;;;9.73;;
6566;SDS011;3317;43.994;22.878;2023-04-24T06:01:48;11.63;;;9.53;;
6566;SDS011;3317;43.994;22.878;2023-04-24T06:04:14;13.00;;;9.50;;
6566;SDS011;3317;43.994;22.878;2023-04-24T06:06:41;14.23;;;9.07;;
6566;SDS011;3317;43.994;22.878;2023-04-24T06:09:08;11.57;;;9.13;;
6566;SDS011;3317;43.994;22.878;2023-04-24T06:11:35;11.10;;;8.67;;
6566;SDS011;3317;43.994;22.878;2023-04-24T06:14:03;16.27;;;8.83;;
6566;SDS011;3317;43.994;22.878;2023-04-24T06:16:31;11.27;;;9.03;;
6566;SDS011;3317;43.994;22.878;2023-04-24T06:18:58;12.10;;;9.57;;
6566;SDS011;3317;43.994;22.878;2023-04-24T06:21:25;11.20;;;8.80;;
6566;SDS011;3317;43.994;22.878;2023-04-24T06:23:52;15.00;;;10.60;;
6566;SDS011;3317;43.994;22.878;2023-04-24T06:26:21;10.77;;;8.80;;
6566;SDS011;3317;43.994;22.878;2023-04-24T06:28:50;15.53;;;9.17;;
6566;SDS011;3317;43.994;22.878;2023-04-24T06:31:16;7.43;;;5.70;;
6566;SDS011;3317;43.994;22.878;2023-04-24T06:33:45;13.80;;;11.30;;
6566;SDS011;3317;43.994;22.878;2023-04-24T06:36:12;18.97;;;14.80;;
6566;SDS011;3317;43.994;22.878;2023-04-24T06:38:39;16.97;;;12.20;;
6566;SDS011;3317;43.994;22.878;2023-04-24T06:41:05;15.77;;;12.80;;
6566;SDS011;3317;43.994;22.878;2023-04-24T06:43:32;13.30;;;10.63;;
6566;SDS011;3317;43.994;22.878;2023-04-24T06:45:59;12.07;;;8.53;;
6566;SDS011;3317;43.994;22.878;2023-04-24T06:48:28;13.20;;;8.07;;
6566;SDS011;3317;43.994;22.878;2023-04-24T06:50:56;10.43;;;7.70;;
6566;SDS011;3317;43.994;22.878;2023-04-24T06:53:23;9.50;;;7.50;;
6566;SDS011;3317;43.994;22.878;2023-04-24T06:55:50;6.87;;;6.17;;
6566;SDS011;3317;43.994;22.878;2023-04-24T06:58:17;9.73;;;8.10;;
6566;SDS011;3317;43.994;22.878;2023-04-24T07:00:44;11.77;;;8.50;;
6566;SDS011;3317;43.994;22.878;2023-04-24T07:03:11;14.67;;;9.87;;
6566;SDS011;3317;43.994;22.878;2023-04-24T07:05:38;12.40;;;8.60;;
6566;SDS011;3317;43.994;22.878;2023-04-24T07:08:06;10.80;;;7.70;;
6566;SDS011;3317;43.994;22.878;2023-04-24T07:10:36;17.60;;;9.33;;
6566;SDS011;3317;43.994;22.878;2023-04-24T07:13:03;17.77;;;9.10;;
6566;SDS011;3317;43.994;22.878;2023-04-24T07:15:32;12.93;;;8.70;;
6566;SDS011;3317;43.994;22.878;2023-04-24T07:17:59;17.83;;;8.93;;
6566;SDS011;3317;43.994;22.878;2023-04-24T07:20:26;14.00;;;8.87;;
6566;SDS011;3317;43.994;22.878;2023-04-24T07:22:53;11.17;;;7.80;;
6566;SDS011;3317;43.994;22.878;2023-04-24T07:25:21;10.93;;;8.27;;
6566;SDS011;3317;43.994;22.878;2023-04-24T07:27:48;11.30;;;8.43;;
6566;SDS011;3317;43.994;22.878;2023-04-24T07:30:15;12.40;;;8.33;;
6566;SDS011;3317;43.994;22.878;2023-04-24T07:32:42;10.37;;;8.20;;
6566;SDS011;3317;43.994;22.878;2023-04-24T07:35:09;10.30;;;7.87;;
6566;SDS011;3317;43.994;22.878;2023-04-24T07:37:36;11.13;;;8.37;;
6566;SDS011;3317;43.994;22.878;2023-04-24T07:40:03;11.10;;;8.67;;
6566;SDS011;3317;43.994;22.878;2023-04-24T07:42:32;10.20;;;8.33;;
6566;SDS011;3317;43.994;22.878;2023-04-24T07:45:01;8.73;;;6.80;;
6566;SDS011;3317;43.994;22.878;2023-04-24T07:47:28;11.67;;;8.83;;
6566;SDS011;3317;43.994;22.878;2023-04-24T07:49:55;15.43;;;9.17;;
6566;SDS011;3317;43.994;22.878;2023-04-24T07:52:23;13.67;;;9.07;;
6566;SDS011;3317;43.994;22.878;2023-04-24T07:54:51;10.20;;;9.03;;
6566;SDS011;3317;43.994;22.878;2023-04-24T07:57:23;10.83;;;8.20;;
6566;SDS011;3317;43.994;22.878;2023-04-24T07:59:52;14.37;;;9.30;;
6566;SDS011;3317;43.994;22.878;2023-04-24T08:02:18;8.17;;;6.30;;
6566;SDS011;3317;43.994;22.878;2023-04-24T08:04:48;15.80;;;9.70;;
6566;SDS011;3317;43.994;22.878;2023-04-24T08:07:14;14.90;;;9.60;;
6566;SDS011;3317;43.994;22.878;2023-04-24T08:09:42;11.50;;;8.00;;
6566;SDS011;3317;43.994;22.878;2023-04-24T08:12:09;9.80;;;7.57;;
6566;SDS011;3317;43.994;22.878;2023-04-24T08:14:35;13.07;;;8.43;;
6566;SDS011;3317;43.994;22.878;2023-04-24T08:17:04;12.43;;;8.03;;
6566;SDS011;3317;43.994;22.878;2023-04-24T08:19:31;9.00;;;7.60;;
6566;SDS011;3317;43.994;22.878;2023-04-24T08:21:58;13.97;;;8.13;;
6566;SDS011;3317;43.994;22.878;2023-04-24T08:24:27;9.43;;;8.03;;
6566;SDS011;3317;43.994;22.878;2023-04-24T08:26:54;11.17;;;8.73;;
6566;SDS011;3317;43.994;22.878;2023-04-24T08:29:23;14.03;;;8.60;;
6566;SDS011;3317;43.994;22.878;2023-04-24T08:31:50;13.60;;;8.37;;
6566;SDS011;3317;43.994;22.878;2023-04-24T08:34:18;11.47;;;8.40;;
6566;SDS011;3317;43.994;22.878;2023-04-24T08:36:45;9.10;;;7.53;;
6566;SDS011;3317;43.994;22.878;2023-04-24T08:39:12;13.03;;;7.60;;
6566;SDS011;3317;43.994;22.878;2023-04-24T08:41:39;11.10;;;7.40;;
6566;SDS011;3317;43.994;22.878;2023-04-24T08:44:10;6.57;;;5.97;;
6566;SDS011;3317;43.994;22.878;2023-04-24T08:46:40;10.57;;;7.33;;
6566;SDS011;3317;43.994;22.878;2023-04-24T08:49:07;6.70;;;5.20;;
6566;SDS011;3317;43.994;22.878;2023-04-24T08:51:35;8.83;;;7.27;;
6566;SDS011;3317;43.994;22.878;2023-04-24T08:54:04;8.60;;;6.90;;
6566;SDS011;3317;43.994;22.878;2023-04-24T08:56:32;8.67;;;7.10;;
6566;SDS011;3317;43.994;22.878;2023-04-24T08:59:03;9.67;;;7.40;;
6566;SDS011;3317;43.994;22.878;2023-04-24T09:01:30;8.50;;;7.70;;
6566;SDS011;3317;43.994;22.878;2023-04-24T09:04:00;15.83;;;8.17;;
6566;SDS011;3317;43.994;22.878;2023-04-24T09:06:28;11.33;;;8.13;;
6566;SDS011;3317;43.994;22.878;2023-04-24T09:08:58;10.77;;;8.10;;
6566;SDS011;3317;43.994;22.878;2023-04-24T09:11:29;10.00;;;8.30;;
6566;SDS011;3317;43.994;22.878;2023-04-24T09:13:57;11.50;;;7.80;;
6566;SDS011;3317;43.994;22.878;2023-04-24T09:16:25;12.67;;;9.37;;
6566;SDS011;3317;43.994;22.878;2023-04-24T09:18:52;11.33;;;8.70;;
6566;SDS011;3317;43.994;22.878;2023-04-24T09:21:20;12.00;;;8.97;;
6566;SDS011;3317;43.994;22.878;2023-04-24T09:23:48;10.73;;;9.07;;
6566;SDS011;3317;43.994;22.878;2023-04-24T09:26:26;11.70;;;8.83;;
6566;SDS011;3317;43.994;22.878;2023-04-24T09:28:57;9.10;;;7.87;;
6566;SDS011;3317;43.994;22.878;2023-04-24T09:31:26;10.27;;;9.10;;
6566;SDS011;3317;43.994;22.878;2023-04-24T09:33:55;9.13;;;7.80;;
6566;SDS011;3317;43.994;22.878;2023-04-24T09:36:26;10.07;;;8.00;;
6566;SDS011;3317;43.994;22.878;2023-04-24T09:38:58;11.33;;;8.83;;
6566;SDS011;3317;43.994;22.878;2023-04-24T09:41:27;12.90;;;9.17;;
6566;SDS011;3317;43.994;22.878;2023-04-24T09:43:55;8.73;;;7.83;;
6566;SDS011;3317;43.994;22.878;2023-04-24T09:46:28;11.23;;;8.50;;
6566;SDS011;3317;43.994;22.878;2023-04-24T09:48:56;11.43;;;8.77;;
6566;SDS011;3317;43.994;22.878;2023-04-24T09:51:33;10.10;;;7.90;;
6566;SDS011;3317;43.994;22.878;2023-04-24T09:54:03;11.43;;;8.37;;
6566;SDS011;3317;43.994;22.878;2023-04-24T09:56:39;8.87;;;7.80;;
6566;SDS011;3317;43.994;22.878;2023-04-24T09:59:12;9.50;;;8.40;;
6566;SDS011;3317;43.994;22.878;2023-04-24T10:01:39;7.90;;;7.07;;
6566;SDS011;3317;43.994;22.878;2023-04-24T10:04:15;9.00;;;7.97;;
6566;SDS011;3317;43.994;22.878;2023-04-24T10:06:44;8.77;;;6.50;;
6566;SDS011;3317;43.994;22.878;2023-04-24T10:09:13;11.03;;;8.10;;
6566;SDS011;3317;43.994;22.878;2023-04-24T10:11:41;7.80;;;6.30;;
6566;SDS011;3317;43.994;22.878;2023-04-24T10:14:10;7.30;;;6.03;;
6566;SDS011;3317;43.994;22.878;2023-04-24T10:16:39;9.67;;;8.30;;
6566;SDS011;3317;43.994;22.878;2023-04-24T10:19:06;10.50;;;8.80;;
6566;SDS011;3317;43.994;22.878;2023-04-24T10:21:35;9.47;;;7.93;;
6566;SDS011;3317;43.994;22.878;2023-04-24T10:24:03;10.73;;;8.53;;
6566;SDS011;3317;43.994;22.878;2023-04-24T10:26:34;10.87;;;8.87;;
6566;SDS011;3317;43.994;22.878;2023-04-24T10:29:02;10.70;;;9.60;;
6566;SDS011;3317;43.994;22.878;2023-04-24T10:31:35;13.00;;;10.27;;
6566;SDS011;3317;43.994;22.878;2023-04-24T10:34:03;10.20;;;8.07;;
6566;SDS011;3317;43.994;22.878;2023-04-24T10:36:31;10.40;;;9.30;;
6566;SDS011;3317;43.994;22.878;2023-04-24T10:39:01;12.75;;;9.60;;
6566;SDS011;3317;43.994;22.878;2023-04-24T10:41:30;15.60;;;9.90;;
6566;SDS011;3317;43.994;22.878;2023-04-24T10:44:05;18.10;;;10.53;;
6566;SDS011;3317;43.994;22.878;2023-04-24T10:46:32;16.23;;;10.30;;
6566;SDS011;3317;43.994;22.878;2023-04-24T10:49:00;11.37;;;9.23;;
6566;SDS011;3317;43.994;22.878;2023-04-24T10:51:44;13.33;;;9.80;;
6566;SDS011;3317;43.994;22.878;2023-04-24T10:54:23;12.60;;;9.80;;
6566;SDS011;3317;43.994;22.878;2023-04-24T10:56:51;12.73;;;9.60;;
6566;SDS011;3317;43.994;22.878;2023-04-24T10:59:26;15.03;;;10.40;;
6566;SDS011;3317;43.994;22.878;2023-04-24T11:01:54;16.40;;;10.00;;
6566;SDS011;3317;43.994;22.878;2023-04-24T11:04:31;14.87;;;11.03;;
6566;SDS011;3317;43.994;22.878;2023-04-24T11:07:00;10.90;;;8.73;;
6566;SDS011;3317;43.994;22.878;2023-04-24T11:09:29;12.43;;;9.47;;
6566;SDS011;3317;43.994;22.878;2023-04-24T11:12:04;11.47;;;9.27;;
6566;SDS011;3317;43.994;22.878;2023-04-24T11:17:30;10.60;;;9.50;;
6566;SDS011;3317;43.994;22.878;2023-04-24T11:20:01;12.87;;;9.20;;
6566;SDS011;3317;43.994;22.878;2023-04-24T11:22:30;19.07;;;8.37;;
6566;SDS011;3317;43.994;22.878;2023-04-24T11:25:00;11.43;;;9.70;;
6566;SDS011;3317;43.994;22.878;2023-04-24T11:27:29;12.10;;;9.53;;
6566;SDS011;3317;43.994;22.878;2023-04-24T11:29:59;9.43;;;7.87;;
6566;SDS011;3317;43.994;22.878;2023-04-24T11:32:29;9.00;;;6.50;;
6566;SDS011;3317;43.994;22.878;2023-04-24T11:34:57;14.80;;;8.40;;
6566;SDS011;3317;43.994;22.878;2023-04-24T11:37:27;10.57;;;8.90;;
6566;SDS011;3317;43.994;22.878;2023-04-24T11:39:56;12.50;;;8.77;;
6566;SDS011;3317;43.994;22.878;2023-04-24T11:42:24;12.13;;;8.00;;
6566;SDS011;3317;43.994;22.878;2023-04-24T11:44:53;14.90;;;9.40;;
6566;SDS011;3317;43.994;22.878;2023-04-24T11:47:28;9.70;;;7.83;;
6566;SDS011;3317;43.994;22.878;2023-04-24T11:49:56;12.07;;;9.03;;
6566;SDS011;3317;43.994;22.878;2023-04-24T11:52:23;14.00;;;8.67;;
6566;SDS011;3317;43.994;22.878;2023-04-24T11:54:50;11.47;;;8.80;;
6566;SDS011;3317;43.994;22.878;2023-04-24T11:57:18;12.57;;;8.63;;
6566;SDS011;3317;43.994;22.878;2023-04-24T11:59:46;13.13;;;9.53;;
6566;SDS011;3317;43.994;22.878;2023-04-24T12:02:21;9.27;;;8.37;;
6566;SDS011;3317;43.994;22.878;2023-04-24T12:04:50;10.57;;;8.90;;
6566;SDS011;3317;43.994;22.878;2023-04-24T12:07:17;14.90;;;8.50;;
6566;SDS011;3317;43.994;22.878;2023-04-24T12:09:45;10.83;;;7.33;;
6566;SDS011;3317;43.994;22.878;2023-04-24T12:12:13;11.27;;;7.53;;
6566;SDS011;3317;43.994;22.878;2023-04-24T12:14:42;8.67;;;7.37;;
6566;SDS011;3317;43.994;22.878;2023-04-24T12:17:10;10.63;;;7.97;;
6566;SDS011;3317;43.994;22.878;2023-04-24T12:19:37;8.20;;;6.73;;
6566;SDS011;3317;43.994;22.878;2023-04-24T12:22:05;9.00;;;7.80;;
6566;SDS011;3317;43.994;22.878;2023-04-24T12:24:33;13.27;;;8.47;;
6566;SDS011;3317;43.994;22.878;2023-04-24T12:27:00;9.00;;;7.47;;
6566;SDS011;3317;43.994;22.878;2023-04-24T12:29:27;10.70;;;7.93;;
6566;SDS011;3317;43.994;22.878;2023-04-24T12:31:54;9.17;;;6.77;;
6566;SDS011;3317;43.994;22.878;2023-04-24T12:34:22;12.50;;;8.03;;
6566;SDS011;3317;43.994;22.878;2023-04-24T12:36:50;8.67;;;7.77;;
6566;SDS011;3317;43.994;22.878;2023-04-24T12:39:18;10.20;;;7.80;;
6566;SDS011;3317;43.994;22.878;2023-04-24T12:41:55;10.07;;;7.77;;
6566;SDS011;3317;43.994;22.878;2023-04-24T12:44:29;9.40;;;7.43;;
6566;SDS011;3317;43.994;22.878;2023-04-24T12:46:59;11.30;;;7.40;;
6566;SDS011;3317;43.994;22.878;2023-04-24T12:49:26;9.10;;;6.90;;
6566;SDS011;3317;43.994;22.878;2023-04-24T12:51:53;7.70;;;7.00;;
6566;SDS011;3317;43.994;22.878;2023-04-24T12:54:22;10.53;;;6.87;;
6566;SDS011;3317;43.994;22.878;2023-04-24T12:56:49;11.47;;;7.77;;
6566;SDS011;3317;43.994;22.878;2023-04-24T12:59:16;7.90;;;7.00;;
6566;SDS011;3317;43.994;22.878;2023-04-24T13:01:42;9.47;;;7.17;;
6566;SDS011;3317;43.994;22.878;2023-04-24T13:04:10;9.77;;;7.23;;
6566;SDS011;3317;43.994;22.878;2023-04-24T13:06:36;11.30;;;7.50;;
6566;SDS011;3317;43.994;22.878;2023-04-24T13:09:03;12.70;;;7.33;;
6566;SDS011;3317;43.994;22.878;2023-04-24T13:11:32;11.13;;;6.90;;
6566;SDS011;3317;43.994;22.878;2023-04-24T13:13:59;9.40;;;6.70;;
6566;SDS011;3317;43.994;22.878;2023-04-24T13:16:25;8.40;;;7.00;;
6566;SDS011;3317;43.994;22.878;2023-04-24T13:18:52;9.10;;;7.03;;
6566;SDS011;3317;43.994;22.878;2023-04-24T13:21:19;10.50;;;7.10;;
6566;SDS011;3317;43.994;22.878;2023-04-24T13:23:46;9.20;;;6.27;;
6566;SDS011;3317;43.994;22.878;2023-04-24T13:26:14;8.07;;;6.47;;
6566;SDS011;3317;43.994;22.878;2023-04-24T13:28:42;8.20;;;7.00;;
6566;SDS011;3317;43.994;22.878;2023-04-24T13:31:09;7.63;;;6.57;;
6566;SDS011;3317;43.994;22.878;2023-04-24T13:33:36;6.00;;;5.50;;
6566;SDS011;3317;43.994;22.878;2023-04-24T13:36:03;7.90;;;5.90;;
6566;SDS011;3317;43.994;22.878;2023-04-24T13:38:30;6.80;;;6.00;;
6566;SDS011;3317;43.994;22.878;2023-04-24T13:40:57;5.20;;;4.70;;
6566;SDS011;3317;43.994;22.878;2023-04-24T13:43:24;5.67;;;5.07;;
6566;SDS011;3317;43.994;22.878;2023-04-24T13:45:53;9.80;;;5.47;;
6566;SDS011;3317;43.994;22.878;2023-04-24T13:48:20;6.00;;;4.83;;
6566;SDS011;3317;43.994;22.878;2023-04-24T13:50:47;5.13;;;4.63;;
6566;SDS011;3317;43.994;22.878;2023-04-24T13:53:14;7.27;;;4.90;;
6566;SDS011;3317;43.994;22.878;2023-04-24T13:55:41;5.90;;;4.93;;
6566;SDS011;3317;43.994;22.878;2023-04-24T13:58:09;6.17;;;4.67;;
6566;SDS011;3317;43.994;22.878;2023-04-24T14:00:36;7.10;;;4.83;;
6566;SDS011;3317;43.994;22.878;2023-04-24T14:03:05;6.40;;;5.30;;
6566;SDS011;3317;43.994;22.878;2023-04-24T14:05:31;5.00;;;4.50;;
6566;SDS011;3317;43.994;22.878;2023-04-24T14:07:59;5.80;;;4.80;;
6566;SDS011;3317;43.994;22.878;2023-04-24T14:10:26;6.83;;;5.00;;
6566;SDS011;3317;43.994;22.878;2023-04-24T14:12:53;6.80;;;4.20;;
6566;SDS011;3317;43.994;22.878;2023-04-24T14:15:20;5.17;;;4.33;;
6566;SDS011;3317;43.994;22.878;2023-04-24T14:17:47;8.30;;;4.70;;
6566;SDS011;3317;43.994;22.878;2023-04-24T14:20:16;5.23;;;4.47;;
6566;SDS011;3317;43.994;22.878;2023-04-24T14:22:43;4.80;;;3.93;;
6566;SDS011;3317;43.994;22.878;2023-04-24T14:25:10;5.00;;;4.17;;
6566;SDS011;3317;43.994;22.878;2023-04-24T14:27:37;5.90;;;4.23;;
6566;SDS011;3317;43.994;22.878;2023-04-24T14:30:05;4.73;;;3.70;;
6566;SDS011;3317;43.994;22.878;2023-04-24T14:32:33;4.10;;;3.63;;
6566;SDS011;3317;43.994;22.878;2023-04-24T14:35:00;5.90;;;3.90;;
6566;SDS011;3317;43.994;22.878;2023-04-24T14:37:29;4.73;;;4.10;;
6566;SDS011;3317;43.994;22.878;2023-04-24T14:39:56;4.20;;;3.80;;
6566;SDS011;3317;43.994;22.878;2023-04-24T14:42:23;5.07;;;3.90;;
6566;SDS011;3317;43.994;22.878;2023-04-24T14:44:50;5.60;;;3.90;;
6566;SDS011;3317;43.994;22.878;2023-04-24T14:47:17;3.70;;;3.40;;
6566;SDS011;3317;43.994;22.878;2023-04-24T14:49:46;3.70;;;3.40;;
6566;SDS011;3317;43.994;22.878;2023-04-24T14:52:13;4.37;;;3.97;;
6566;SDS011;3317;43.994;22.878;2023-04-24T14:54:42;6.73;;;4.13;;
6566;SDS011;3317;43.994;22.878;2023-04-24T14:57:09;8.13;;;4.10;;
6566;SDS011;3317;43.994;22.878;2023-04-24T14:59:36;5.37;;;3.83;;